createdAt,value
2018-09-06T00:00:18.567Z,0.00
2018-09-06T00:01:18.763Z,0.00
2018-09-06T00:02:18.952Z,0.00
2018-09-06T00:03:19.149Z,0.00
2018-09-06T00:04:19.348Z,0.00
2018-09-06T00:05:19.538Z,0.00
2018-09-06T00:06:19.732Z,0.00
2018-09-06T00:07:19.922Z,0.00
2018-09-06T00:08:20.112Z,0.00
2018-09-06T00:09:20.315Z,0.00
2018-09-06T00:10:20.501Z,0.00
2018-09-06T00:11:20.713Z,0.00
2018-09-06T00:12:20.892Z,0.00
2018-09-06T00:13:21.080Z,0.00
2018-09-06T00:14:21.273Z,0.00
2018-09-06T00:15:21.467Z,0.00
2018-09-06T00:16:21.664Z,0.00
2018-09-06T00:17:21.853Z,0.00
2018-09-06T00:18:22.041Z,0.00
2018-09-06T00:19:22.233Z,0.00
2018-09-06T00:20:22.435Z,0.00
2018-09-06T00:21:22.630Z,0.00
2018-09-06T00:22:22.819Z,0.00
2018-09-06T00:23:23.009Z,0.00
2018-09-06T00:24:23.212Z,0.00
2018-09-06T00:25:23.403Z,0.00
2018-09-06T00:26:23.601Z,0.00
2018-09-06T00:27:23.787Z,0.00
2018-09-06T00:28:23.981Z,0.00
2018-09-06T00:29:24.177Z,0.00
2018-09-06T00:30:24.372Z,0.00
2018-09-06T00:31:24.561Z,0.00
2018-09-06T00:32:24.751Z,0.00
2018-09-06T00:33:24.946Z,0.00
2018-09-06T00:34:25.138Z,0.00
2018-09-06T00:35:25.337Z,0.00
2018-09-06T00:36:25.524Z,0.00
2018-09-06T00:37:25.716Z,0.00
2018-09-06T00:38:25.911Z,0.00
2018-09-06T00:39:26.101Z,0.00
2018-09-06T00:40:26.296Z,0.00
2018-09-06T00:41:26.490Z,0.00
2018-09-06T00:42:26.678Z,0.00
2018-09-06T00:43:26.878Z,0.00
2018-09-06T00:44:27.069Z,0.00
2018-09-06T00:45:27.258Z,0.00
2018-09-06T00:46:27.448Z,0.00
2018-09-06T00:47:27.639Z,0.00
2018-09-06T00:48:27.827Z,0.00
2018-09-06T00:49:28.020Z,0.00
2018-09-06T00:50:28.212Z,0.00
2018-09-06T00:51:28.408Z,0.00
2018-09-06T00:52:28.599Z,0.00
2018-09-06T00:53:28.786Z,0.00
2018-09-06T00:54:28.975Z,0.00
2018-09-06T00:55:29.167Z,0.00
2018-09-06T00:56:29.353Z,0.00
2018-09-06T00:57:29.549Z,0.00
2018-09-06T00:58:29.745Z,0.00
2018-09-06T00:59:29.937Z,0.00
2018-09-06T01:00:30.127Z,0.00
2018-09-06T01:01:30.321Z,0.00
2018-09-06T01:02:30.510Z,0.00
2018-09-06T01:03:30.747Z,0.00
2018-09-06T01:04:30.892Z,0.00
2018-09-06T01:05:31.084Z,0.00
2018-09-06T01:06:31.290Z,0.00
2018-09-06T01:07:31.463Z,0.00
2018-09-06T01:08:31.644Z,0.00
2018-09-06T01:09:31.836Z,0.00
2018-09-06T01:10:32.026Z,0.00
2018-09-06T01:11:32.218Z,0.00
2018-09-06T01:12:32.409Z,0.00
2018-09-06T01:13:32.597Z,0.00
2018-09-06T01:14:32.792Z,0.00
2018-09-06T01:15:32.980Z,0.00
2018-09-06T01:16:33.175Z,0.00
2018-09-06T01:17:33.364Z,0.00
2018-09-06T01:18:33.554Z,0.00
2018-09-06T01:19:33.750Z,0.00
2018-09-06T01:20:33.938Z,0.00
2018-09-06T01:21:34.132Z,0.00
2018-09-06T01:22:34.321Z,0.00
2018-09-06T01:23:34.513Z,0.00
2018-09-06T01:24:34.711Z,0.00
2018-09-06T01:25:34.906Z,0.00
2018-09-06T01:26:35.103Z,0.00
2018-09-06T01:27:35.291Z,0.00
2018-09-06T01:28:35.480Z,0.00
2018-09-06T01:29:35.671Z,0.00
2018-09-06T01:30:35.863Z,0.00
2018-09-06T01:31:36.064Z,0.00
2018-09-06T01:32:36.255Z,0.00
2018-09-06T01:33:36.454Z,0.00
2018-09-06T01:34:36.645Z,0.00
2018-09-06T01:35:36.833Z,0.00
2018-09-06T01:36:37.025Z,0.00
2018-09-06T01:37:37.223Z,0.00
2018-09-06T01:38:37.553Z,0.00
2018-09-06T01:39:37.608Z,0.00
2018-09-06T01:40:37.797Z,0.00
2018-09-06T01:41:37.992Z,0.00
2018-09-06T01:42:38.180Z,0.00
2018-09-06T01:43:38.383Z,0.00
2018-09-06T01:44:38.564Z,0.00
2018-09-06T01:45:38.753Z,0.00
2018-09-06T01:46:38.946Z,0.00
2018-09-06T01:47:39.134Z,0.00
2018-09-06T01:48:39.322Z,0.00
2018-09-06T01:49:39.510Z,0.00
2018-09-06T01:50:39.701Z,0.00
2018-09-06T01:51:39.899Z,0.00
2018-09-06T01:52:40.093Z,0.00
2018-09-06T01:53:40.289Z,0.00
2018-09-06T01:54:40.489Z,0.00
2018-09-06T01:55:40.682Z,0.00
2018-09-06T01:56:40.867Z,0.00
2018-09-06T01:57:41.057Z,0.00
2018-09-06T01:58:41.246Z,0.00
2018-09-06T01:59:41.443Z,0.00
2018-09-06T02:00:41.629Z,0.00
2018-09-06T02:01:41.826Z,0.00
2018-09-06T02:02:42.012Z,0.00
2018-09-06T02:03:42.203Z,0.00
2018-09-06T02:04:42.395Z,0.00
2018-09-06T02:05:42.594Z,0.00
2018-09-06T02:06:42.782Z,0.00
2018-09-06T02:07:42.974Z,0.00
2018-09-06T02:08:43.165Z,0.00
2018-09-06T02:09:43.355Z,0.00
2018-09-06T02:10:43.548Z,0.00
2018-09-06T02:11:43.738Z,0.00
2018-09-06T02:12:43.930Z,0.00
2018-09-06T02:13:44.119Z,0.00
2018-09-06T02:14:44.309Z,0.00
2018-09-06T02:15:44.503Z,0.00
2018-09-06T02:16:44.697Z,0.00
2018-09-06T02:17:44.887Z,0.00
2018-09-06T02:18:45.077Z,0.00
2018-09-06T02:19:45.265Z,0.00
2018-09-06T02:20:45.453Z,0.00
2018-09-06T02:21:45.648Z,0.00
2018-09-06T02:22:45.838Z,0.00
2018-09-06T02:23:46.028Z,0.00
2018-09-06T02:24:46.233Z,0.00
2018-09-06T02:25:46.420Z,0.00
2018-09-06T02:26:46.606Z,0.00
2018-09-06T02:27:46.799Z,0.00
2018-09-06T02:28:46.987Z,0.00
2018-09-06T02:29:47.180Z,0.00
2018-09-06T02:30:47.366Z,0.00
2018-09-06T02:31:47.554Z,0.00
2018-09-06T02:32:47.741Z,0.00
2018-09-06T02:33:47.936Z,0.00
2018-09-06T02:34:48.125Z,0.00
2018-09-06T02:35:48.314Z,0.00
2018-09-06T02:36:48.508Z,0.00
2018-09-06T02:37:48.697Z,0.00
2018-09-06T02:38:48.891Z,0.00
2018-09-06T02:39:49.084Z,0.00
2018-09-06T02:40:49.270Z,0.00
2018-09-06T02:41:49.468Z,0.00
2018-09-06T02:42:49.654Z,0.00
2018-09-06T02:43:49.845Z,0.00
2018-09-06T02:44:50.035Z,0.00
2018-09-06T02:45:50.228Z,0.00
2018-09-06T02:46:50.421Z,0.00
2018-09-06T02:47:50.610Z,0.00
2018-09-06T02:48:50.796Z,0.00
2018-09-06T02:49:50.995Z,0.00
2018-09-06T02:50:51.179Z,0.00
2018-09-06T02:51:51.367Z,0.00
2018-09-06T02:52:51.557Z,0.00
2018-09-06T02:53:51.788Z,0.00
2018-09-06T02:54:51.938Z,0.00
2018-09-06T02:55:52.130Z,0.00
2018-09-06T02:56:52.318Z,0.00
2018-09-06T02:57:52.510Z,0.00
2018-09-06T02:58:52.706Z,0.00
2018-09-06T02:59:52.897Z,0.00
2018-09-06T03:00:53.085Z,0.00
2018-09-06T03:01:53.280Z,0.00
2018-09-06T03:02:53.470Z,0.00
2018-09-06T03:03:53.664Z,0.00
2018-09-06T03:04:53.860Z,0.00
2018-09-06T03:05:54.052Z,0.00
2018-09-06T03:06:54.247Z,0.00
2018-09-06T03:07:54.490Z,0.00
2018-09-06T03:08:54.638Z,0.00
2018-09-06T03:09:54.829Z,0.00
2018-09-06T03:10:55.022Z,0.00
2018-09-06T03:11:55.210Z,0.00
2018-09-06T03:12:55.412Z,0.00
2018-09-06T03:13:55.599Z,0.00
2018-09-06T03:14:55.804Z,0.00
2018-09-06T03:15:55.996Z,0.00
2018-09-06T03:16:56.188Z,0.00
2018-09-06T03:17:56.381Z,0.00
2018-09-06T03:18:56.570Z,0.00
2018-09-06T03:19:56.768Z,0.00
2018-09-06T03:20:56.957Z,0.00
2018-09-06T03:21:57.147Z,0.00
2018-09-06T03:22:57.337Z,0.00
2018-09-06T03:23:57.539Z,0.00
2018-09-06T03:24:57.718Z,0.00
2018-09-06T03:25:57.911Z,0.00
2018-09-06T03:26:58.095Z,0.00
2018-09-06T03:27:58.287Z,0.00
2018-09-06T03:28:58.476Z,0.00
2018-09-06T03:29:58.677Z,0.00
2018-09-06T03:30:58.863Z,0.00
2018-09-06T03:31:59.064Z,0.00
2018-09-06T03:32:59.255Z,0.00
2018-09-06T03:33:59.427Z,0.00
2018-09-06T03:34:59.616Z,0.00
2018-09-06T03:35:59.874Z,0.00
2018-09-06T03:36:59.993Z,0.00
2018-09-06T03:38:00.180Z,0.00
2018-09-06T03:39:00.378Z,0.00
2018-09-06T03:40:00.568Z,0.00
2018-09-06T03:41:00.760Z,0.00
2018-09-06T03:42:00.951Z,0.00
2018-09-06T03:43:01.171Z,0.00
2018-09-06T03:44:01.330Z,0.00
2018-09-06T03:45:01.519Z,0.00
2018-09-06T03:46:01.712Z,0.00
2018-09-06T03:47:01.898Z,0.00
2018-09-06T03:48:02.095Z,0.00
2018-09-06T03:49:02.283Z,0.00
2018-09-06T03:50:02.480Z,0.00
2018-09-06T03:51:02.662Z,0.00
2018-09-06T03:52:02.851Z,0.00
2018-09-06T03:53:03.036Z,0.00
2018-09-06T03:54:03.235Z,0.00
2018-09-06T03:55:03.423Z,0.00
2018-09-06T03:56:03.615Z,0.00
2018-09-06T03:57:03.812Z,0.00
2018-09-06T03:58:03.994Z,0.00
2018-09-06T03:59:04.187Z,0.00
2018-09-06T04:00:04.380Z,0.00
2018-09-06T04:01:04.571Z,0.00
2018-09-06T04:02:04.760Z,0.00
2018-09-06T04:03:04.950Z,0.00
2018-09-06T04:04:05.143Z,0.00
2018-09-06T04:05:05.334Z,0.00
2018-09-06T04:06:05.519Z,0.00
2018-09-06T04:07:05.722Z,0.00
2018-09-06T04:08:05.909Z,0.00
2018-09-06T04:09:06.099Z,0.00
2018-09-06T04:10:06.293Z,0.00
2018-09-06T04:11:06.480Z,0.00
2018-09-06T04:12:06.664Z,0.00
2018-09-06T04:13:06.852Z,0.00
2018-09-06T04:14:07.049Z,0.00
2018-09-06T04:15:07.835Z,0.00
2018-09-06T04:16:07.433Z,0.00
2018-09-06T04:17:07.618Z,0.00
2018-09-06T04:18:07.811Z,0.00
2018-09-06T04:19:07.994Z,0.00
2018-09-06T04:20:08.199Z,0.00
2018-09-06T04:21:08.382Z,0.00
2018-09-06T04:22:08.566Z,0.00
2018-09-06T04:23:08.758Z,0.00
2018-09-06T04:24:09.006Z,0.00
2018-09-06T04:25:09.137Z,0.00
2018-09-06T04:26:09.331Z,0.00
2018-09-06T04:27:09.523Z,0.00
2018-09-06T04:28:09.711Z,5.63
2018-09-06T04:29:09.899Z,5.63
2018-09-06T04:30:10.087Z,5.63
2018-09-06T04:31:10.295Z,5.63
2018-09-06T04:32:10.480Z,5.63
2018-09-06T04:33:10.672Z,11.25
2018-09-06T04:34:10.860Z,11.25
2018-09-06T04:35:11.056Z,11.25
2018-09-06T04:36:11.265Z,11.25
2018-09-06T04:37:11.437Z,16.88
2018-09-06T04:38:11.631Z,16.88
2018-09-06T04:39:11.822Z,16.88
2018-09-06T04:40:12.021Z,22.50
2018-09-06T04:41:12.208Z,22.50
2018-09-06T04:42:12.400Z,22.50
2018-09-06T04:43:12.594Z,28.13
2018-09-06T04:44:12.779Z,28.13
2018-09-06T04:45:12.968Z,33.75
2018-09-06T04:46:13.166Z,33.75
2018-09-06T04:47:13.364Z,39.38
2018-09-06T04:48:13.553Z,39.38
2018-09-06T04:49:13.740Z,45.00
2018-09-06T04:50:13.929Z,50.63
2018-09-06T04:51:14.125Z,50.63
2018-09-06T04:52:14.313Z,56.25
2018-09-06T04:53:14.504Z,61.88
2018-09-06T04:54:14.700Z,67.50
2018-09-06T04:55:14.931Z,73.13
2018-09-06T04:56:15.076Z,78.75
2018-09-06T04:57:15.264Z,84.38
2018-09-06T04:58:15.452Z,90.00
2018-09-06T04:59:15.645Z,95.63
2018-09-06T05:00:15.841Z,101.25
2018-09-06T05:01:16.038Z,106.88
2018-09-06T05:02:16.224Z,112.50
2018-09-06T05:03:16.419Z,112.50
2018-09-06T05:04:16.677Z,123.75
2018-09-06T05:05:16.806Z,129.38
2018-09-06T05:06:16.999Z,135.00
2018-09-06T05:07:17.188Z,146.25
2018-09-06T05:08:17.377Z,151.88
2018-09-06T05:09:17.573Z,163.13
2018-09-06T05:10:17.764Z,168.75
2018-09-06T05:11:17.953Z,180.00
2018-09-06T05:12:18.147Z,191.25
2018-09-06T05:13:18.340Z,196.88
2018-09-06T05:14:18.532Z,208.13
2018-09-06T05:15:18.741Z,213.75
2018-09-06T05:16:18.923Z,225.00
2018-09-06T05:17:19.112Z,230.63
2018-09-06T05:18:19.312Z,236.25
2018-09-06T05:19:19.506Z,247.50
2018-09-06T05:20:19.694Z,258.75
2018-09-06T05:21:19.890Z,264.38
2018-09-06T05:22:20.072Z,275.63
2018-09-06T05:23:20.258Z,286.88
2018-09-06T05:24:20.450Z,298.13
2018-09-06T05:25:20.637Z,309.38
2018-09-06T05:26:20.828Z,320.63
2018-09-06T05:27:21.018Z,331.88
2018-09-06T05:28:21.212Z,337.50
2018-09-06T05:29:21.406Z,348.75
2018-09-06T05:30:21.592Z,354.38
2018-09-06T05:31:21.785Z,365.63
2018-09-06T05:32:21.976Z,376.88
2018-09-06T05:33:22.175Z,388.13
2018-09-06T05:34:22.359Z,405.00
2018-09-06T05:35:22.550Z,416.25
2018-09-06T05:36:22.756Z,427.50
2018-09-06T05:37:22.950Z,438.75
2018-09-06T05:38:23.137Z,450.00
2018-09-06T05:39:23.329Z,461.25
2018-09-06T05:40:23.519Z,466.88
2018-09-06T05:41:23.717Z,483.75
2018-09-06T05:42:23.897Z,500.63
2018-09-06T05:43:24.096Z,545.63
2018-09-06T05:44:24.272Z,607.50
2018-09-06T05:45:24.487Z,630.00
2018-09-06T05:46:24.652Z,641.25
2018-09-06T05:47:24.925Z,793.13
2018-09-06T05:48:25.053Z,984.38
2018-09-06T05:49:25.261Z,945.00
2018-09-06T05:50:25.431Z,1080.00
2018-09-06T05:51:25.629Z,1203.75
2018-09-06T05:52:25.810Z,1265.63
2018-09-06T05:53:26.045Z,1372.50
2018-09-06T05:54:26.201Z,1338.75
2018-09-06T05:55:26.397Z,1406.25
2018-09-06T05:56:26.585Z,1518.75
2018-09-06T05:57:26.775Z,1558.13
2018-09-06T05:58:26.976Z,1603.13
2018-09-06T05:59:27.229Z,1631.25
2018-09-06T06:00:27.353Z,1648.13
2018-09-06T06:01:27.543Z,1670.63
2018-09-06T06:02:27.734Z,1698.75
2018-09-06T06:03:27.936Z,1721.25
2018-09-06T06:04:28.133Z,1749.38
2018-09-06T06:05:28.314Z,1800.00
2018-09-06T06:06:28.518Z,1822.50
2018-09-06T06:07:28.709Z,1850.63
2018-09-06T06:08:28.901Z,1884.38
2018-09-06T06:09:29.113Z,1912.50
2018-09-06T06:10:29.305Z,1957.50
2018-09-06T06:11:29.500Z,1980.00
2018-09-06T06:12:29.699Z,2025.00
2018-09-06T06:13:29.893Z,2053.13
2018-09-06T06:14:30.093Z,2064.38
2018-09-06T06:15:30.280Z,2086.88
2018-09-06T06:16:30.491Z,2143.13
2018-09-06T06:17:30.688Z,2176.88
2018-09-06T06:18:30.895Z,2182.50
2018-09-06T06:19:31.095Z,2199.38
2018-09-06T06:20:31.284Z,2199.38
2018-09-06T06:21:31.480Z,2193.75
2018-09-06T06:22:31.687Z,2176.88
2018-09-06T06:23:31.869Z,2176.88
2018-09-06T06:24:32.076Z,2210.63
2018-09-06T06:25:32.293Z,2250.00
2018-09-06T06:26:32.506Z,2295.00
2018-09-06T06:27:32.715Z,2278.13
2018-09-06T06:28:32.913Z,2143.13
2018-09-06T06:29:33.114Z,1653.75
2018-09-06T06:30:33.311Z,1400.63
2018-09-06T06:31:33.507Z,2131.88
2018-09-06T06:32:33.706Z,2548.13
2018-09-06T06:33:33.908Z,2542.50
2018-09-06T06:34:34.098Z,2514.38
2018-09-06T06:35:34.298Z,2491.88
2018-09-06T06:36:34.521Z,2446.88
2018-09-06T06:37:34.688Z,2497.50
2018-09-06T06:38:34.886Z,2435.63
2018-09-06T06:39:35.083Z,2548.13
2018-09-06T06:40:35.276Z,2677.50
2018-09-06T06:41:35.475Z,2733.75
2018-09-06T06:42:35.679Z,2761.88
2018-09-06T06:43:35.891Z,2761.88
2018-09-06T06:44:36.076Z,2711.25
2018-09-06T06:45:36.271Z,2570.63
2018-09-06T06:46:36.466Z,2188.13
2018-09-06T06:47:36.668Z,1490.63
2018-09-06T06:48:36.858Z,1462.50
2018-09-06T06:49:37.060Z,1636.88
2018-09-06T06:50:37.259Z,2362.50
2018-09-06T06:51:37.451Z,2070.00
2018-09-06T06:52:37.661Z,1462.50
2018-09-06T06:53:37.856Z,1524.38
2018-09-06T06:54:38.058Z,1558.13
2018-09-06T06:55:38.255Z,1378.13
2018-09-06T06:56:38.453Z,1338.75
2018-09-06T06:57:38.652Z,1338.75
2018-09-06T06:58:38.872Z,1350.00
2018-09-06T06:59:39.042Z,1361.25
2018-09-06T07:00:39.244Z,1406.25
2018-09-06T07:01:39.445Z,1456.88
2018-09-06T07:02:39.637Z,1541.25
2018-09-06T07:03:39.839Z,1614.38
2018-09-06T07:04:40.046Z,1833.75
2018-09-06T07:05:40.225Z,3341.25
2018-09-06T07:06:40.436Z,3048.75
2018-09-06T07:07:40.621Z,2497.50
2018-09-06T07:08:40.819Z,1839.38
2018-09-06T07:09:41.018Z,1867.50
2018-09-06T07:10:41.219Z,2716.88
2018-09-06T07:11:41.409Z,2570.63
2018-09-06T07:12:41.605Z,3414.38
2018-09-06T07:13:41.805Z,3515.63
2018-09-06T07:14:42.008Z,3605.63
2018-09-06T07:15:42.204Z,3661.88
2018-09-06T07:16:42.396Z,3808.13
2018-09-06T07:17:42.599Z,3841.88
2018-09-06T07:18:42.822Z,3892.50
2018-09-06T07:19:42.988Z,4005.00
2018-09-06T07:20:43.196Z,4038.75
2018-09-06T07:21:43.397Z,4095.00
2018-09-06T07:22:43.596Z,4145.63
2018-09-06T07:23:43.791Z,4151.25
2018-09-06T07:24:44.010Z,4168.13
2018-09-06T07:25:44.211Z,4207.50
2018-09-06T07:26:44.417Z,4078.13
2018-09-06T07:27:44.623Z,4061.25
2018-09-06T07:28:44.814Z,4224.38
2018-09-06T07:29:45.020Z,4325.63
2018-09-06T07:30:45.225Z,4342.50
2018-09-06T07:31:45.424Z,4353.75
2018-09-06T07:32:45.634Z,4342.50
2018-09-06T07:33:45.833Z,4353.75
2018-09-06T07:34:46.032Z,4370.63
2018-09-06T07:35:46.241Z,4421.25
2018-09-06T07:36:46.442Z,4359.38
2018-09-06T07:37:46.658Z,4314.38
2018-09-06T07:38:46.856Z,4460.63
2018-09-06T07:39:47.052Z,4623.75
2018-09-06T07:40:47.266Z,4674.38
2018-09-06T07:41:47.479Z,4691.25
2018-09-06T07:42:47.671Z,4702.50
2018-09-06T07:43:47.870Z,4578.75
2018-09-06T07:44:48.075Z,4516.88
2018-09-06T07:45:48.279Z,4567.50
2018-09-06T07:46:48.520Z,4556.25
2018-09-06T07:47:48.689Z,4601.25
2018-09-06T07:48:48.893Z,4668.75
2018-09-06T07:49:49.095Z,4741.88
2018-09-06T07:50:49.293Z,4758.75
2018-09-06T07:51:49.499Z,4775.63
2018-09-06T07:52:49.710Z,4809.38
2018-09-06T07:53:49.904Z,4798.13
2018-09-06T07:54:50.110Z,4815.00
2018-09-06T07:55:50.309Z,4803.75
2018-09-06T07:56:50.520Z,4781.25
2018-09-06T07:57:50.729Z,4786.88
2018-09-06T07:58:50.932Z,4843.13
2018-09-06T07:59:51.141Z,4865.63
2018-09-06T08:00:51.345Z,4916.25
2018-09-06T08:01:51.546Z,4938.75
2018-09-06T08:02:51.743Z,4955.63
2018-09-06T08:03:51.946Z,5000.63
2018-09-06T08:04:52.921Z,5023.13
2018-09-06T08:05:52.360Z,5040.00
2018-09-06T08:06:52.576Z,5062.50
2018-09-06T08:07:52.782Z,5107.50
2018-09-06T08:08:52.987Z,5017.50
2018-09-06T08:09:53.186Z,4860.00
2018-09-06T08:10:53.393Z,4888.13
2018-09-06T08:11:53.638Z,5135.63
2018-09-06T08:12:53.797Z,5118.75
2018-09-06T08:13:54.005Z,5180.63
2018-09-06T08:14:54.210Z,5225.63
2018-09-06T08:15:54.416Z,5270.63
2018-09-06T08:16:54.615Z,5366.25
2018-09-06T08:17:54.821Z,5304.38
2018-09-06T08:18:55.032Z,5439.38
2018-09-06T08:19:55.226Z,5428.13
2018-09-06T08:20:55.430Z,5450.63
2018-09-06T08:21:55.638Z,5270.63
2018-09-06T08:22:55.837Z,4826.25
2018-09-06T08:23:56.040Z,5101.88
2018-09-06T08:24:56.244Z,5248.13
2018-09-06T08:25:56.445Z,5377.50
2018-09-06T08:26:56.653Z,5118.75
2018-09-06T08:27:56.866Z,5175.00
2018-09-06T08:28:57.066Z,5152.50
2018-09-06T08:29:57.275Z,5276.25
2018-09-06T08:30:57.561Z,5388.75
2018-09-06T08:31:57.683Z,5343.75
2018-09-06T08:32:57.885Z,5326.88
2018-09-06T08:33:58.093Z,5203.13
2018-09-06T08:34:58.297Z,5068.13
2018-09-06T08:35:58.501Z,4983.75
2018-09-06T08:36:58.796Z,5051.25
2018-09-06T08:37:58.916Z,4854.38
2018-09-06T08:38:59.118Z,5141.25
2018-09-06T08:39:59.323Z,5186.25
2018-09-06T08:40:59.531Z,4612.50
2018-09-06T08:41:59.738Z,4466.25
2018-09-06T08:42:59.940Z,4449.38
2018-09-06T08:44:00.147Z,3442.50
2018-09-06T08:45:00.345Z,3943.13
2018-09-06T08:46:00.552Z,4500.00
2018-09-06T08:47:00.754Z,4230.00
2018-09-06T08:48:00.962Z,4331.25
2018-09-06T08:49:01.166Z,4899.38
2018-09-06T08:50:01.370Z,4685.63
2018-09-06T08:51:01.571Z,4860.00
2018-09-06T08:52:01.830Z,4961.25
2018-09-06T08:53:01.980Z,4831.88
2018-09-06T08:54:02.186Z,4764.38
2018-09-06T08:55:02.401Z,4921.88
2018-09-06T08:56:02.600Z,5281.88
2018-09-06T08:57:02.806Z,4460.63
2018-09-06T08:58:03.014Z,5056.88
2018-09-06T08:59:03.224Z,5518.13
2018-09-06T09:00:03.430Z,5304.38
2018-09-06T09:01:03.636Z,5416.88
2018-09-06T09:02:03.865Z,5411.25
2018-09-06T09:03:04.100Z,5490.00
2018-09-06T09:04:04.246Z,5518.13
2018-09-06T09:05:04.448Z,5040.00
2018-09-06T09:06:04.751Z,4185.00
2018-09-06T09:07:04.859Z,4162.50
2018-09-06T09:08:05.066Z,4651.88
2018-09-06T09:09:05.267Z,4404.38
2018-09-06T09:10:05.470Z,4657.50
2018-09-06T09:11:05.782Z,4747.50
2018-09-06T09:12:05.895Z,4713.75
2018-09-06T09:13:06.123Z,4556.25
2018-09-06T09:14:06.308Z,4381.88
2018-09-06T09:15:06.522Z,4314.38
2018-09-06T09:16:06.764Z,4055.63
2018-09-06T09:17:06.938Z,4021.88
2018-09-06T09:18:07.137Z,3763.13
2018-09-06T09:19:07.416Z,3706.88
2018-09-06T09:20:07.551Z,3408.75
2018-09-06T09:21:07.756Z,3408.75
2018-09-06T09:22:08.033Z,3526.88
2018-09-06T09:23:08.162Z,3234.38
2018-09-06T09:24:08.377Z,2812.50
2018-09-06T09:25:08.566Z,3498.75
2018-09-06T09:26:08.775Z,3487.50
2018-09-06T09:27:08.973Z,3543.75
2018-09-06T09:28:09.174Z,3285.00
2018-09-06T09:29:09.380Z,3639.38
2018-09-06T09:30:09.574Z,3543.75
2018-09-06T09:31:09.777Z,3976.88
2018-09-06T09:32:09.991Z,4218.75
2018-09-06T09:33:10.195Z,4410.00
2018-09-06T09:34:10.395Z,4899.38
2018-09-06T09:35:10.599Z,5141.25
2018-09-06T09:36:10.801Z,5236.88
2018-09-06T09:37:11.003Z,5360.63
2018-09-06T09:38:11.202Z,5146.88
2018-09-06T09:39:11.413Z,5371.88
2018-09-06T09:40:11.618Z,5501.25
2018-09-06T09:41:11.821Z,5079.38
2018-09-06T09:42:12.024Z,5231.25
2018-09-06T09:43:12.288Z,5214.38
2018-09-06T09:44:12.444Z,5388.75
2018-09-06T09:45:12.697Z,5467.50
2018-09-06T09:47:44.482Z,4983.75
2018-09-06T09:48:44.686Z,4893.75
2018-09-06T09:49:44.890Z,4393.13
2018-09-06T09:51:06.115Z,4348.13
2018-09-06T09:51:45.275Z,4044.38
2018-09-06T09:52:45.473Z,4179.38
2018-09-06T09:53:45.687Z,4348.13
2018-09-06T09:54:45.901Z,4246.88
2018-09-06T09:55:46.108Z,3836.25
2018-09-06T09:56:46.313Z,3678.75
2018-09-06T09:57:47.454Z,3363.75
2018-09-06T09:58:46.719Z,3279.38
2018-09-06T09:59:46.918Z,2992.50
2018-09-06T10:00:47.129Z,3510.00
2018-09-06T10:01:47.342Z,3802.50
2018-09-06T10:02:47.543Z,4016.25
2018-09-06T10:03:47.777Z,4275.00
2018-09-06T10:04:47.945Z,4140.00
2018-09-06T10:05:48.149Z,3931.88
2018-09-06T10:06:48.354Z,4089.38
2018-09-06T10:07:48.554Z,4038.75
2018-09-06T10:08:48.767Z,4111.88
2018-09-06T10:09:48.971Z,4033.13
2018-09-06T10:10:49.173Z,4089.38
2018-09-06T10:11:49.379Z,4106.25
2018-09-06T10:12:49.585Z,3892.50
2018-09-06T10:13:49.799Z,4224.38
2018-09-06T10:14:50.002Z,4100.63
2018-09-06T10:15:50.217Z,3785.63
2018-09-06T10:16:50.415Z,3442.50
2018-09-06T10:17:50.614Z,2913.75
2018-09-06T10:18:50.877Z,2666.25
2018-09-06T10:19:51.008Z,2795.63
2018-09-06T10:20:51.965Z,2300.63
2018-09-06T10:21:51.416Z,2430.00
2018-09-06T10:22:51.620Z,2570.63
2018-09-06T10:23:51.827Z,2632.50
2018-09-06T10:24:52.018Z,2576.25
2018-09-06T10:25:52.242Z,2148.75
2018-09-06T10:26:52.461Z,2227.50
2018-09-06T10:27:52.668Z,2458.13
2018-09-06T10:28:52.872Z,2565.00
2018-09-06T10:29:53.065Z,2559.38
2018-09-06T10:30:53.268Z,2407.50
2018-09-06T10:31:53.479Z,2508.75
2018-09-06T10:32:53.662Z,2356.88
2018-09-06T10:33:53.875Z,2244.38
2018-09-06T10:34:54.086Z,2064.38
2018-09-06T10:35:54.291Z,1856.25
2018-09-06T10:36:54.492Z,2216.25
2018-09-06T10:37:54.703Z,2576.25
2018-09-06T10:38:54.910Z,2520.00
2018-09-06T10:39:55.140Z,2289.38
2018-09-06T10:40:55.301Z,2295.00
2018-09-06T10:41:55.515Z,2362.50
2018-09-06T10:42:55.710Z,2565.00
2018-09-06T10:43:55.924Z,2941.88
2018-09-06T10:44:56.125Z,3273.75
2018-09-06T10:45:56.319Z,3256.88
2018-09-06T10:46:56.520Z,3155.63
2018-09-06T10:47:56.809Z,3003.75
2018-09-06T10:48:56.950Z,3352.50
2018-09-06T10:49:57.149Z,3228.75
2018-09-06T10:50:57.350Z,3037.50
2018-09-06T10:51:57.549Z,3099.38
2018-09-06T10:52:57.761Z,2868.75
2018-09-06T10:53:57.960Z,2638.13
2018-09-06T10:54:58.156Z,2250.00
2018-09-06T10:55:58.366Z,2238.75
2018-09-06T10:56:58.568Z,2193.75
2018-09-06T10:57:58.776Z,2064.38
2018-09-06T10:58:58.971Z,1850.63
2018-09-06T10:59:59.170Z,1845.00
2018-09-06T11:00:59.383Z,1968.75
2018-09-06T11:01:59.602Z,2227.50
2018-09-06T11:02:59.801Z,2098.13
2018-09-06T11:04:00.013Z,2154.38
2018-09-06T11:05:00.217Z,2086.88
2018-09-06T11:06:00.426Z,2081.25
2018-09-06T11:07:00.628Z,2176.88
2018-09-06T11:08:00.838Z,2199.38
2018-09-06T11:09:01.037Z,2182.50
2018-09-06T11:10:01.230Z,2221.88
2018-09-06T11:11:01.431Z,2227.50
2018-09-06T11:12:01.633Z,2210.63
2018-09-06T11:13:01.837Z,2205.00
2018-09-06T11:14:02.049Z,2131.88
2018-09-06T11:15:02.262Z,2126.25
2018-09-06T11:16:02.446Z,1991.25
2018-09-06T11:17:02.656Z,2086.88
2018-09-06T11:18:02.932Z,2086.88
2018-09-06T11:19:03.056Z,2182.50
2018-09-06T11:20:03.252Z,2311.88
2018-09-06T11:21:03.495Z,2053.13
2018-09-06T11:22:04.007Z,2047.50
2018-09-06T11:23:03.878Z,1839.38
2018-09-06T11:24:04.080Z,1800.00
2018-09-06T11:25:04.281Z,1715.63
2018-09-06T11:26:04.479Z,1676.25
2018-09-06T11:27:04.674Z,1710.00
2018-09-06T11:28:04.882Z,1456.88
2018-09-06T11:29:05.079Z,1321.88
2018-09-06T11:30:05.280Z,1518.75
2018-09-06T11:31:05.482Z,1721.25
2018-09-06T11:32:05.690Z,1749.38
2018-09-06T11:33:05.881Z,1389.38
2018-09-06T11:34:06.082Z,1501.88
2018-09-06T11:35:06.287Z,1074.38
2018-09-06T11:36:06.490Z,1091.25
2018-09-06T11:37:06.690Z,1220.63
2018-09-06T11:38:06.889Z,1029.38
2018-09-06T11:39:07.088Z,759.38
2018-09-06T11:40:07.359Z,697.50
2018-09-06T11:41:07.493Z,652.50
2018-09-06T11:42:07.687Z,613.13
2018-09-06T11:43:07.880Z,573.75
2018-09-06T11:44:08.082Z,551.25
2018-09-06T11:45:08.285Z,528.75
2018-09-06T11:46:08.495Z,500.63
2018-09-06T11:47:08.712Z,483.75
2018-09-06T11:48:08.895Z,461.25
2018-09-06T11:49:09.091Z,450.00
2018-09-06T11:50:09.298Z,438.75
2018-09-06T11:51:09.502Z,433.13
2018-09-06T11:52:09.704Z,433.13
2018-09-06T11:53:09.906Z,433.13
2018-09-06T11:54:10.127Z,427.50
2018-09-06T11:55:10.997Z,416.25
2018-09-06T11:56:10.476Z,388.13
2018-09-06T11:57:10.678Z,371.25
2018-09-06T11:58:10.876Z,354.38
2018-09-06T11:59:11.082Z,348.75
2018-09-06T12:00:11.279Z,343.13
2018-09-06T12:01:11.476Z,343.13
2018-09-06T12:02:11.719Z,343.13
2018-09-06T12:03:11.870Z,337.50
2018-09-06T12:04:12.074Z,331.88
2018-09-06T12:05:12.269Z,320.63
2018-09-06T12:06:12.504Z,315.00
2018-09-06T12:07:12.664Z,309.38
2018-09-06T12:08:12.860Z,298.13
2018-09-06T12:09:13.065Z,292.50
2018-09-06T12:10:13.255Z,292.50
2018-09-06T12:11:13.451Z,303.75
2018-09-06T12:12:13.642Z,303.75
2018-09-06T12:13:13.835Z,292.50
2018-09-06T12:14:14.031Z,286.88
2018-09-06T12:15:14.233Z,275.63
2018-09-06T12:16:14.436Z,258.75
2018-09-06T12:17:14.632Z,253.13
2018-09-06T12:18:14.829Z,241.88
2018-09-06T12:19:15.026Z,236.25
2018-09-06T12:20:15.219Z,230.63
2018-09-06T12:21:15.438Z,219.38
2018-09-06T12:22:15.635Z,213.75
2018-09-06T12:23:15.834Z,213.75
2018-09-06T12:24:16.027Z,213.75
2018-09-06T12:25:16.257Z,208.13
2018-09-06T12:26:16.423Z,208.13
2018-09-06T12:27:17.508Z,208.13
2018-09-06T12:28:16.804Z,213.75
2018-09-06T12:29:17.000Z,213.75
2018-09-06T12:30:17.211Z,213.75
2018-09-06T12:31:17.417Z,213.75
2018-09-06T12:32:17.623Z,219.38
2018-09-06T12:33:17.910Z,219.38
2018-09-06T12:34:18.020Z,225.00
2018-09-06T12:35:18.207Z,230.63
2018-09-06T12:36:18.401Z,236.25
2018-09-06T12:37:18.599Z,241.88
2018-09-06T12:38:18.798Z,236.25
2018-09-06T12:39:19.000Z,236.25